createdAt,value
2017-10-15T00:02:00.982Z,61.70
2017-10-15T00:04:29.424Z,61.50
2017-10-15T00:06:57.089Z,61.50
2017-10-15T00:09:24.776Z,61.50
2017-10-15T00:11:53.149Z,61.50
2017-10-15T00:14:20.784Z,61.40
2017-10-15T00:16:48.631Z,61.30
2017-10-15T00:19:16.145Z,61.30
2017-10-15T00:21:44.746Z,61.40
2017-10-15T00:24:14.043Z,61.30
2017-10-15T00:26:46.958Z,61.50
2017-10-15T00:29:16.851Z,61.90
2017-10-15T00:31:45.523Z,61.80
2017-10-15T00:34:15.925Z,61.90
2017-10-15T00:36:46.216Z,62.10
2017-10-15T00:39:17.032Z,62.10
2017-10-15T00:41:57.718Z,62.10
2017-10-15T00:44:26.073Z,62.10
2017-10-15T00:46:56.048Z,62.30
2017-10-15T00:49:25.317Z,62.50
2017-10-15T00:51:55.526Z,62.60
2017-10-15T00:54:25.470Z,63.30
2017-10-15T00:56:58.126Z,63.40
2017-10-15T00:59:26.457Z,63.60
2017-10-15T01:01:56.964Z,63.50
2017-10-15T01:04:25.681Z,63.40
2017-10-15T01:06:55.571Z,63.40
2017-10-15T01:09:27.691Z,63.10
2017-10-15T01:11:56.625Z,63.10
2017-10-15T01:14:27.302Z,63.30
2017-10-15T01:16:57.190Z,63.20
2017-10-15T01:19:27.580Z,63.00
2017-10-15T01:21:56.242Z,63.00
2017-10-15T01:24:25.221Z,62.90
2017-10-15T01:26:58.391Z,62.60
2017-10-15T01:29:28.031Z,62.50
2017-10-15T01:31:59.218Z,62.40
2017-10-15T01:34:29.610Z,62.50
2017-10-15T01:39:33.268Z,62.70
2017-10-15T01:42:01.805Z,62.80
2017-10-15T01:44:33.130Z,62.90
2017-10-15T01:47:01.497Z,63.20
2017-10-15T01:49:32.306Z,63.40
2017-10-15T01:52:00.209Z,63.40
2017-10-15T01:54:28.811Z,63.90
2017-10-15T01:56:56.980Z,64.40
2017-10-15T01:59:27.215Z,64.90
2017-10-15T02:01:55.090Z,65.20
2017-10-15T02:04:22.609Z,65.10
2017-10-15T02:06:51.308Z,65.70
2017-10-15T02:09:18.894Z,65.50
2017-10-15T02:11:46.522Z,66.20
2017-10-15T02:14:15.327Z,66.60
2017-10-15T02:16:43.119Z,66.60
2017-10-15T02:19:11.390Z,66.30
2017-10-15T02:21:39.523Z,66.00
2017-10-15T02:24:07.087Z,65.60
2017-10-15T02:26:34.647Z,65.20
2017-10-15T02:29:02.931Z,65.00
2017-10-15T02:31:31.103Z,64.80
2017-10-15T02:33:58.632Z,64.50
2017-10-15T02:36:27.382Z,64.10
2017-10-15T02:38:54.994Z,64.10
2017-10-15T02:41:23.700Z,64.40
2017-10-15T02:43:51.248Z,64.40
2017-10-15T02:46:18.935Z,64.20
2017-10-15T02:48:46.509Z,64.30
2017-10-15T02:51:14.065Z,64.50
2017-10-15T02:53:41.613Z,64.50
2017-10-15T02:56:09.418Z,64.40
2017-10-15T02:58:37.271Z,64.40
2017-10-15T03:01:05.538Z,64.30
2017-10-15T03:03:33.119Z,64.20
2017-10-15T03:06:00.720Z,64.00
2017-10-15T03:08:28.378Z,64.00
2017-10-15T03:10:57.195Z,63.90
2017-10-15T03:13:24.744Z,63.80
2017-10-15T03:15:52.501Z,63.80
2017-10-15T03:18:20.146Z,63.80
2017-10-15T03:20:48.891Z,63.80
2017-10-15T03:23:16.425Z,63.80
2017-10-15T03:25:44.037Z,63.70
2017-10-15T03:28:11.617Z,63.50
2017-10-15T03:30:40.227Z,63.30
2017-10-15T03:33:08.507Z,63.30
2017-10-15T03:35:36.385Z,63.30
2017-10-15T03:38:04.120Z,63.10
2017-10-15T03:40:31.680Z,63.10
2017-10-15T03:42:59.585Z,63.10
2017-10-15T03:45:28.333Z,63.10
2017-10-15T03:47:55.885Z,63.10
2017-10-15T03:50:23.648Z,63.10
2017-10-15T03:52:52.399Z,63.30
2017-10-15T03:55:20.040Z,63.20
2017-10-15T03:57:47.771Z,63.40
2017-10-15T04:00:16.325Z,63.40
2017-10-15T04:02:43.955Z,63.60
2017-10-15T04:05:11.514Z,63.60
2017-10-15T04:07:39.807Z,63.60
2017-10-15T04:10:07.805Z,63.70
2017-10-15T04:12:36.239Z,63.80
2017-10-15T04:15:06.883Z,63.90
2017-10-15T04:17:35.340Z,63.90
2017-10-15T04:20:04.136Z,63.80
2017-10-15T04:22:32.404Z,63.80
2017-10-15T04:24:59.979Z,64.00
2017-10-15T04:27:28.501Z,63.90
2017-10-15T04:29:56.079Z,63.80
2017-10-15T04:32:23.644Z,63.70
2017-10-15T04:34:52.198Z,63.90
2017-10-15T04:37:19.757Z,63.90
2017-10-15T04:39:47.316Z,63.90
2017-10-15T04:42:15.057Z,63.90
2017-10-15T04:54:23.189Z,63.90
2017-10-15T04:56:50.709Z,64.00
2017-10-15T05:12:09.868Z,64.00
2017-10-15T05:14:37.556Z,64.50
2017-10-15T05:17:05.121Z,64.60
2017-10-15T05:19:32.648Z,64.40
2017-10-15T05:22:02.513Z,64.40
2017-10-15T05:24:30.634Z,64.40
2017-10-15T05:26:58.140Z,64.10
2017-10-15T05:29:25.716Z,64.10
2017-10-15T05:31:53.298Z,64.00
2017-10-15T05:34:20.840Z,64.10
2017-10-15T05:36:48.453Z,64.30
2017-10-15T05:39:15.977Z,64.20
2017-10-15T05:41:43.605Z,64.20
2017-10-15T05:44:11.788Z,64.10
2017-10-15T05:46:40.207Z,64.10
2017-10-15T05:49:08.624Z,64.10
2017-10-15T05:51:43.270Z,64.00
2017-10-15T05:54:11.408Z,64.00
2017-10-15T05:56:39.651Z,64.00
2017-10-15T05:59:07.412Z,64.00
2017-10-15T06:01:35.034Z,63.90
2017-10-15T06:04:03.377Z,64.00
2017-10-15T06:19:21.832Z,64.80
2017-10-15T06:21:50.122Z,65.00
2017-10-15T06:24:17.699Z,65.00
2017-10-15T06:26:45.439Z,64.80
2017-10-15T06:29:15.815Z,64.90
2017-10-15T06:31:43.685Z,64.70
2017-10-15T06:34:11.669Z,64.70
2017-10-15T06:36:39.269Z,64.60
2017-10-15T06:39:07.073Z,64.60
2017-10-15T06:41:34.978Z,64.60
2017-10-15T06:44:02.539Z,64.40
2017-10-15T06:46:31.308Z,64.50
2017-10-15T06:48:59.082Z,64.60
2017-10-15T06:51:27.257Z,64.50
2017-10-15T06:53:55.640Z,64.30
2017-10-15T06:56:23.301Z,64.30
2017-10-15T06:58:50.849Z,64.30
2017-10-15T07:01:19.748Z,64.00
2017-10-15T07:03:47.392Z,64.00
2017-10-15T07:06:16.081Z,63.80
2017-10-15T07:08:44.276Z,63.80
2017-10-15T07:11:11.835Z,63.60
2017-10-15T07:13:40.294Z,63.70
2017-10-15T07:16:08.128Z,64.00
2017-10-15T07:18:37.045Z,63.70
2017-10-15T07:21:05.535Z,63.50
2017-10-15T07:23:33.088Z,63.40
2017-10-15T07:26:01.181Z,63.30
2017-10-15T07:28:29.809Z,63.30
2017-10-15T07:30:57.591Z,63.30
2017-10-15T07:33:25.416Z,63.20
2017-10-15T07:35:53.821Z,63.10
2017-10-15T07:38:21.535Z,63.00
2017-10-15T07:40:50.008Z,63.10
2017-10-15T07:43:17.603Z,63.10
2017-10-15T07:45:45.265Z,62.90
2017-10-15T07:48:13.864Z,62.90
2017-10-15T07:50:41.647Z,62.70
2017-10-15T07:53:09.259Z,62.60
2017-10-15T07:55:37.690Z,62.50
2017-10-15T07:58:05.386Z,62.40
2017-10-15T08:00:32.943Z,62.30
2017-10-15T08:03:00.445Z,62.30
2017-10-15T08:05:28.197Z,62.30
2017-10-15T08:07:55.732Z,62.20
2017-10-15T08:10:24.377Z,62.00
2017-10-15T08:12:52.887Z,62.00
2017-10-15T08:15:37.628Z,62.10
2017-10-15T08:18:06.368Z,61.90
2017-10-15T08:20:36.645Z,61.90
2017-10-15T08:23:06.248Z,61.70
2017-10-15T08:25:34.133Z,61.50
2017-10-15T08:28:06.581Z,61.40
2017-10-15T08:30:34.843Z,61.40
2017-10-15T08:33:05.531Z,61.20
2017-10-15T08:35:36.888Z,61.10
2017-10-15T08:38:08.339Z,61.00
2017-10-15T08:46:20.232Z,60.70
2017-10-15T08:48:49.973Z,60.50
2017-10-15T08:51:20.368Z,60.40
2017-10-15T08:53:50.679Z,60.30
2017-10-15T08:56:25.509Z,60.20
2017-10-15T08:59:05.739Z,60.10
2017-10-15T09:01:37.596Z,60.00
2017-10-15T09:04:08.787Z,59.80
2017-10-15T09:06:40.575Z,59.70
2017-10-15T09:09:11.407Z,59.30
2017-10-15T09:11:42.494Z,59.30
2017-10-15T09:14:17.234Z,59.10
2017-10-15T09:16:46.864Z,59.10
2017-10-15T09:19:16.812Z,58.90
2017-10-15T09:21:45.533Z,58.80
2017-10-15T09:24:16.588Z,58.70
2017-10-15T09:26:56.093Z,58.70
2017-10-15T09:29:30.024Z,58.70
2017-10-15T09:32:08.294Z,58.70
2017-10-15T09:34:40.372Z,58.60
2017-10-15T09:37:12.909Z,58.40
2017-10-15T09:39:46.260Z,58.40
2017-10-15T09:42:21.730Z,58.40
2017-10-15T09:44:59.440Z,58.20
2017-10-15T09:47:38.075Z,58.00
2017-10-15T09:50:15.645Z,58.00
2017-10-15T09:52:53.884Z,58.00
2017-10-15T09:55:32.827Z,58.10
2017-10-15T09:58:10.935Z,58.40
2017-10-15T10:00:38.596Z,58.40
2017-10-15T10:03:08.701Z,58.40
2017-10-15T10:05:41.361Z,58.40
2017-10-15T10:08:09.152Z,58.60
2017-10-15T10:10:38.400Z,58.20
2017-10-15T10:13:09.308Z,58.10
2017-10-15T10:15:38.697Z,58.00
2017-10-15T10:18:06.475Z,57.80
2017-10-15T10:20:36.769Z,58.20
2017-10-15T10:23:13.415Z,57.50
2017-10-15T10:25:42.371Z,57.00
2017-10-15T10:28:09.959Z,57.00
2017-10-15T10:30:38.845Z,56.80
2017-10-15T10:33:06.710Z,56.60
2017-10-15T10:35:35.133Z,56.30
2017-10-15T10:38:03.256Z,56.10
2017-10-15T10:40:45.301Z,55.90
2017-10-15T10:43:13.341Z,55.80
2017-10-15T10:45:45.706Z,55.30
2017-10-15T10:48:14.895Z,55.30
2017-10-15T10:50:43.345Z,55.00
2017-10-15T10:53:14.717Z,55.00
2017-10-15T10:55:43.694Z,54.90
2017-10-15T10:58:12.186Z,54.80
2017-10-15T11:00:41.743Z,54.50
2017-10-15T11:03:09.736Z,54.50
2017-10-15T11:05:38.399Z,54.50
2017-10-15T11:08:09.369Z,54.50
2017-10-15T11:10:38.970Z,54.50
2017-10-15T11:13:09.086Z,55.60
2017-10-15T11:15:38.207Z,55.50
2017-10-15T11:18:07.426Z,55.70
2017-10-15T11:20:35.519Z,55.60
2017-10-15T11:23:03.137Z,55.60
2017-10-15T11:25:32.701Z,55.70
2017-10-15T11:28:01.130Z,55.70
2017-10-15T11:30:29.805Z,55.50
2017-10-15T11:32:57.309Z,55.50
2017-10-15T11:35:26.059Z,55.40
2017-10-15T11:37:55.096Z,55.20
2017-10-15T11:40:23.057Z,55.10
2017-10-15T11:42:50.622Z,55.00
2017-10-15T11:45:18.588Z,54.90
2017-10-15T11:47:47.658Z,54.80
2017-10-15T11:50:15.551Z,54.80
2017-10-15T11:52:44.116Z,54.70
2017-10-15T11:55:13.961Z,54.60
2017-10-15T11:57:43.332Z,54.50
2017-10-15T12:00:11.616Z,54.40
2017-10-15T12:02:39.665Z,54.30
2017-10-15T12:05:09.790Z,54.40
2017-10-15T12:07:40.487Z,54.50
2017-10-15T12:10:08.862Z,54.40
2017-10-15T12:12:37.346Z,54.70
2017-10-15T12:15:05.587Z,54.80
2017-10-15T12:17:33.969Z,54.80
2017-10-15T12:20:02.148Z,54.80
2017-10-15T12:22:30.297Z,54.60
2017-10-15T12:24:59.283Z,54.40
2017-10-15T12:27:29.107Z,54.40
2017-10-15T12:29:56.984Z,54.40
2017-10-15T12:32:24.728Z,54.40
2017-10-15T12:34:53.816Z,54.50
2017-10-15T12:37:22.723Z,54.40
2017-10-15T12:39:51.542Z,54.40
2017-10-15T12:42:20.416Z,54.50
2017-10-15T12:44:50.502Z,54.50
2017-10-15T12:47:20.040Z,54.30
2017-10-15T12:49:51.492Z,54.20
2017-10-15T12:52:19.957Z,54.00
2017-10-15T12:54:48.661Z,53.90
2017-10-15T12:57:16.254Z,53.90
2017-10-15T12:59:43.899Z,54.00
2017-10-15T13:02:13.835Z,54.10
2017-10-15T13:07:20.091Z,54.20
2017-10-15T13:09:48.807Z,54.40
2017-10-15T13:12:18.642Z,54.40
2017-10-15T13:14:47.159Z,54.30
2017-10-15T13:19:48.393Z,54.50
2017-10-15T13:22:18.334Z,54.40
2017-10-15T13:24:45.873Z,54.40
2017-10-15T13:27:14.277Z,54.50
2017-10-15T13:29:42.444Z,54.50
2017-10-15T13:32:10.634Z,55.30
2017-10-15T13:34:39.102Z,54.70
2017-10-15T13:37:07.544Z,54.70
2017-10-15T13:39:35.139Z,54.70
2017-10-15T13:42:03.607Z,54.70
2017-10-15T13:44:32.397Z,54.60
2017-10-15T13:47:00.924Z,54.60
2017-10-15T13:49:28.522Z,54.60
2017-10-15T13:51:56.241Z,54.60
2017-10-15T13:54:23.878Z,54.60
2017-10-15T13:56:51.480Z,54.60
2017-10-15T13:59:19.234Z,54.60
2017-10-15T14:01:47.395Z,54.60
2017-10-15T14:04:14.936Z,54.30
2017-10-15T14:06:43.802Z,54.20
2017-10-15T14:09:12.491Z,54.00
2017-10-15T14:11:41.336Z,54.00
2017-10-15T14:14:08.864Z,54.00
2017-10-15T14:16:37.198Z,54.20
2017-10-15T14:19:05.934Z,54.20
2017-10-15T14:21:33.891Z,54.30
2017-10-15T14:24:01.763Z,54.20
2017-10-15T14:26:30.633Z,54.30
2017-10-15T14:28:58.965Z,54.10
2017-10-15T14:31:27.238Z,54.10
2017-10-15T14:33:54.804Z,54.00
2017-10-15T14:36:23.486Z,54.10
2017-10-15T14:38:51.515Z,54.10
2017-10-15T14:41:20.270Z,54.10
2017-10-15T14:43:48.418Z,54.00
2017-10-15T14:46:20.622Z,54.10
2017-10-15T14:48:48.291Z,54.00
2017-10-15T14:51:17.502Z,54.00
2017-10-15T14:53:49.322Z,53.90
2017-10-15T14:56:18.019Z,53.80
2017-10-15T14:58:49.711Z,53.80
2017-10-15T15:01:18.801Z,53.80
2017-10-15T15:03:47.104Z,53.80
2017-10-15T15:06:17.797Z,54.40
2017-10-15T15:08:46.328Z,53.90
2017-10-15T15:11:14.498Z,53.90
2017-10-15T15:13:43.498Z,53.90
2017-10-15T15:16:12.345Z,54.00
2017-10-15T15:18:41.419Z,53.90
2017-10-15T15:21:10.230Z,53.90
2017-10-15T15:23:38.615Z,53.80
2017-10-15T15:26:10.178Z,53.70
2017-10-15T15:28:39.396Z,53.70
2017-10-15T15:31:07.909Z,53.60
2017-10-15T15:33:37.596Z,53.50
2017-10-15T15:36:05.795Z,53.40
2017-10-15T15:38:33.533Z,53.50
2017-10-15T15:41:02.845Z,53.50
2017-10-15T15:43:32.497Z,53.40
2017-10-15T15:46:01.617Z,53.40
2017-10-15T15:48:31.650Z,53.40
2017-10-15T15:50:59.890Z,53.40
2017-10-15T15:53:28.698Z,53.50
2017-10-15T15:56:00.835Z,53.40
2017-10-15T15:58:31.969Z,53.50
2017-10-15T16:01:00.406Z,53.60
2017-10-15T16:03:28.252Z,53.50
2017-10-15T16:05:59.226Z,53.70
2017-10-15T16:08:27.852Z,53.80
2017-10-15T16:10:59.748Z,54.10
2017-10-15T16:13:29.382Z,54.10
2017-10-15T16:15:58.101Z,54.10
2017-10-15T16:18:26.619Z,54.30
2017-10-15T16:20:58.213Z,54.40
2017-10-15T16:23:26.451Z,54.50
2017-10-15T16:26:02.487Z,54.60
2017-10-15T16:28:31.852Z,54.80
2017-10-15T16:30:59.482Z,54.80
2017-10-15T16:33:28.623Z,55.00
2017-10-15T16:36:02.566Z,55.10
2017-10-15T16:38:43.316Z,55.40
2017-10-15T16:44:07.816Z,55.50
2017-10-15T16:46:38.174Z,55.60
2017-10-15T16:49:10.161Z,55.80
2017-10-15T16:51:38.172Z,55.90
2017-10-15T16:54:07.356Z,56.10
2017-10-15T16:56:35.240Z,56.10
2017-10-15T16:59:02.829Z,56.40
2017-10-15T17:01:32.590Z,56.50
2017-10-15T17:04:01.970Z,56.50
2017-10-15T17:09:16.998Z,56.80
2017-10-15T17:14:23.410Z,57.00
2017-10-15T17:16:54.557Z,57.20
2017-10-15T17:19:23.621Z,57.40
2017-10-15T17:21:51.963Z,57.40
2017-10-15T17:24:22.448Z,57.60
2017-10-15T17:27:25.594Z,57.60
2017-10-15T17:29:55.342Z,57.70
2017-10-15T17:32:24.374Z,57.70
2017-10-15T17:35:04.925Z,58.00
2017-10-15T17:40:16.222Z,58.10
2017-10-15T17:42:43.924Z,58.10
2017-10-15T17:45:12.788Z,58.10
2017-10-15T17:47:41.307Z,58.30
2017-10-15T17:50:10.210Z,58.30
2017-10-15T17:52:40.052Z,58.30
2017-10-15T17:55:09.298Z,58.40
2017-10-15T17:57:36.976Z,58.70
2017-10-15T18:00:04.800Z,58.70
2017-10-15T18:02:32.976Z,58.70
2017-10-15T18:05:01.323Z,58.80
2017-10-15T18:07:39.704Z,58.80
2017-10-15T18:10:09.480Z,58.80
2017-10-15T18:12:39.082Z,58.90
2017-10-15T18:15:08.444Z,58.90
2017-10-15T18:17:36.028Z,58.90
2017-10-15T18:20:04.075Z,58.80
2017-10-15T18:22:32.880Z,59.00
2017-10-15T18:25:01.398Z,58.90
2017-10-15T18:27:29.967Z,58.90
2017-10-15T18:29:58.474Z,59.00
2017-10-15T18:32:26.128Z,59.10
2017-10-15T18:34:53.767Z,59.10
2017-10-15T18:37:22.484Z,59.20
2017-10-15T18:39:50.034Z,59.20
2017-10-15T18:42:17.636Z,59.30
2017-10-15T18:44:45.158Z,59.20
2017-10-15T18:47:13.542Z,59.30
2017-10-15T18:49:42.666Z,59.20
2017-10-15T18:52:10.434Z,60.00
2017-10-15T18:54:38.020Z,59.50
2017-10-15T18:57:06.458Z,59.50
2017-10-15T18:59:34.134Z,59.50
2017-10-15T19:02:01.748Z,59.50
2017-10-15T19:04:30.085Z,59.50
2017-10-15T19:06:57.616Z,59.50
2017-10-15T19:09:25.219Z,59.60
2017-10-15T19:11:53.042Z,59.70
2017-10-15T19:14:20.721Z,59.70
2017-10-15T19:16:48.386Z,59.70
2017-10-15T19:19:17.535Z,59.70
2017-10-15T19:21:46.057Z,59.90
2017-10-15T19:24:17.323Z,59.90
2017-10-15T19:26:58.407Z,60.00
2017-10-15T19:29:34.271Z,60.10
2017-10-15T19:32:22.581Z,60.30
2017-10-15T20:41:08.532Z,62.10
2017-10-15T20:56:31.386Z,62.10
2017-10-15T20:58:58.975Z,63.20
2017-10-15T21:01:27.407Z,63.60
2017-10-15T21:03:54.984Z,63.50
2017-10-15T21:06:22.618Z,63.40
2017-10-15T21:08:50.281Z,63.40
2017-10-15T21:11:17.844Z,63.30
2017-10-15T21:13:45.426Z,64.20
2017-10-15T21:16:13.046Z,63.10
2017-10-15T21:18:43.488Z,63.10
2017-10-15T21:21:11.146Z,63.20
2017-10-15T21:23:38.739Z,63.30
2017-10-15T21:26:06.502Z,63.20
2017-10-15T21:28:34.058Z,63.20
2017-10-15T21:31:01.589Z,63.20
2017-10-15T21:33:29.258Z,63.20
2017-10-15T21:35:56.870Z,63.20
2017-10-15T21:38:24.456Z,63.20
2017-10-15T21:40:52.270Z,63.10
2017-10-15T22:44:40.314Z,64.00
2017-10-15T23:33:49.996Z,64.20
